Aérodrome :
LOGIN :

S'inscrire | Disclaimer

   EN    FR    IT 

 










Légende :    VFR   VFR Marginal   IFR   IFR Intensif   IFR Très Intensif
Visi : 
Plafond : 
>= 8 km
>= 3000ft
5 à 8 km
1000 à 3000 ft
1500m à 5 km
500 à 1000 ft
800 à 1500m
200 à 500 ft
< 800m
< 200 ft
Symboles :   Orages  Brouillard  Fortes neiges  Fortes précipitations  Vent > 20 kt
SIGMETs :   Divers  Orages  Givrage  Turbulence  Onde Orograph.  Cendres Volcan.






- Altitude de l'aérodrome : 1367 ft
- Code IATA : FDH


EDNY - Friedrichshafen

DERNIER METAR :
  • 291620Z 25011KT 230V290 9999 FEW022 SCT036 05/01 Q1015

METARs EXPIRÉS :
  • 291550Z 25016KT 9999 SCT022 BKN033 BKN039 05/02 Q1014
  • 291520Z 24016KT 9999 BKN019 BKN029 BKN035 05/02 Q1014
  • 291450Z 25013KT 220V280 9999 SCT019 BKN028 OVC035 05/02 Q1013
  • 291420Z 25013KT 9999 FEW016 BKN040 05/02 Q1013
  • 291350Z 24012KT 9999 FEW055 04/02 Q1013

TAF TAF EDNY
Valide du 29 à 12h jusqu'au 30 à 12h UTC


291100Z 2912/3012 24011KT 9999 SCT025
PROB30
TEMPO 2912/2920 26020G30KT 3000 -SHSN BKN012CB
BECMG 2923/3001 25004KT



MET'MAP, la Météo Aéronautique d'un coup d'oeil ! - Copyright ORBIFLY Décembre 2007 - Disclaimer

ORBIFLY MET'MAP TEAM :

Programmation & Développement : Alexandra Zaïnal
Sur une idée originale de : Baudouin d'Aumeries
Assistance à la programmation : Marc-Olivier Méhu
Soutien technique & logistique : Manuel Goepfert

Contact : metmap@orbifly.com




SOURCES & CREDITS :

   NOAA